Time;durP1;ratioP1;P1;durP2;ratioP2;P2;SDS_P1;SDS_P2;PMS_P1;PMS_P2;Temp;Humidity;BMP_temperature;BMP_pressure;BME280_temperature;BME280_humidity;BME280_pressure;Samples;Min_cycle;Max_cycle;Signal;HPM_P1;HPM_P2
2023/09/05 01:47:31;;;;;;;2.30;2.00;;;18.20;1.00;;;;;;802816;22;20696;-88
2023/09/05 01:49:57;;;;;;;2.53;2.15;;;18.10;1.00;;;;;;5073688;28;20398;-95
2023/09/05 01:52:25;;;;;;;2.67;2.47;;;19.30;1.00;;;;;;5075407;28;20409;-95
2023/09/05 01:54:52;;;;;;;2.00;1.88;;;18.40;1.00;;;;;;5124414;22;20481;-94
2023/09/05 01:57:20;;;;;;;2.03;1.90;;;17.90;1.00;;;;;;5044745;28;20488;-93
2023/09/05 02:00:12;;;;;;;2.55;1.88;;;19.50;1.00;;;;;;5044916;28;20391;-93
2023/09/05 02:02:38;;;;;;;2.22;1.90;;;20.40;1.00;;;;;;5053463;28;20464;-94
2023/09/05 02:05:06;;;;;;;2.20;2.00;;;20.30;1.00;;;;;;5055748;28;20508;-94
2023/09/05 02:07:32;;;;;;;2.08;1.88;;;17.80;1.00;;;;;;5055981;28;20410;-94
2023/09/05 02:10:00;;;;;;;2.10;1.90;;;18.60;1.00;;;;;;5064610;28;20395;-94
2023/09/05 02:12:26;;;;;;;3.40;2.10;;;16.40;1.00;;;;;;5049876;28;20544;-92
2023/09/05 02:14:52;;;;;;;2.87;1.93;;;19.50;1.00;;;;;;5042124;28;20400;-92
2023/09/05 02:25:04;;;;;;;2.30;2.10;;;17.40;1.00;;;;;;5495830;22;20437;-92
2023/09/05 02:38:39;;;;;;;2.75;2.30;;;16.90;1.00;;;;;;5751296;22;21143;-92
2023/09/05 02:41:04;;;;;;;2.60;2.03;;;17.20;1.00;;;;;;5047877;28;20391;-93
2023/09/05 02:43:35;;;;;;;2.45;2.25;;;17.50;1.00;;;;;;5052545;28;20430;-93
2023/09/05 02:46:01;;;;;;;2.90;2.40;;;17.70;1.00;;;;;;5082064;28;20388;-94
2023/09/05 02:48:27;;;;;;;2.60;1.90;;;18.90;1.00;;;;;;5065771;28;20414;-94
2023/09/05 02:51:01;;;;;;;2.35;2.15;;;16.80;1.00;;;;;;5070653;28;20411;-94
2023/09/05 03:04:00;;;;;;;3.97;2.05;;;16.40;1.00;;;;;;5035933;28;20463;-92
2023/09/05 03:06:26;;;;;;;2.20;2.00;;;16.90;1.00;;;;;;5027153;28;20416;-92
2023/09/05 03:08:52;;;;;;;2.60;2.20;;;16.70;1.00;;;;;;5034094;28;20392;-92
2023/09/05 03:11:18;;;;;;;2.50;2.30;;;15.60;1.00;;;;;;5036442;28;20416;-92
2023/09/05 03:13:47;;;;;;;2.70;2.50;;;17.50;1.00;;;;;;5037070;28;20396;-92
2023/09/05 03:16:14;;;;;;;2.22;1.80;;;16.60;1.00;;;;;;5027771;28;20399;-93
2023/09/05 03:18:40;;;;;;;5.00;2.05;;;18.60;1.00;;;;;;5035474;28;20402;-93
2023/09/05 03:21:06;;;;;;;2.85;2.20;;;18.10;1.00;;;;;;5032455;28;20418;-93
2023/09/05 03:23:39;;;;;;;2.40;2.20;;;16.60;1.00;;;;;;5034360;28;20451;-92
2023/09/05 03:26:22;;;;;;;3.50;2.20;;;19.30;1.00;;;;;;5035003;28;20469;-93
2023/09/05 03:29:06;;;;;;;;;;;;;;;;;;;;;
2023/09/05 03:36:52;;;;;;;2.38;2.17;;;16.40;1.00;;;;;;5802108;22;20414;-92
2023/09/05 03:39:34;;;;;;;2.30;2.00;;;16.60;1.00;;;;;;5067694;28;20405;-93
2023/09/05 03:42:22;;;;;;;2.93;2.10;;;16.50;1.00;;;;;;5065608;28;20479;-94
2023/09/05 03:44:57;;;;;;;2.47;2.17;;;16.20;1.00;;;;;;5072011;28;20421;-94
2023/09/05 03:47:36;;;;;;;3.10;1.75;;;16.20;1.00;;;;;;5073447;28;20391;-93
2023/09/05 03:50:33;;;;;;;3.25;1.90;;;16.40;1.00;;;;;;5073156;28;20429;-94
2023/09/05 04:00:48;;;;;;;2.90;2.20;;;16.00;1.00;;;;;;5427632;22;20426;-94
2023/09/05 04:05:54;;;;;;;2.20;1.77;;;16.30;1.00;;;;;;5510435;23;20433;-92
2023/09/05 04:08:35;;;;;;;2.53;1.90;;;16.60;1.00;;;;;;5074639;28;20432;-94
2023/09/05 04:11:04;;;;;;;2.20;2.00;;;16.90;1.00;;;;;;5077125;28;21028;-93
2023/09/05 04:16:06;;;;;;;2.63;1.90;;;15.90;1.00;;;;;;5464950;22;20412;-94
2023/09/05 04:18:32;;;;;;;2.50;2.30;;;15.00;1.00;;;;;;5070058;28;20401;-93
2023/09/05 04:20:58;;;;;;;3.00;2.08;;;16.10;1.00;;;;;;5057838;28;20398;-92
2023/09/05 04:23:24;;;;;;;2.20;2.00;;;16.70;1.00;;;;;;5066885;28;20790;-92
2023/09/05 04:25:57;;;;;;;2.30;2.10;;;19.00;1.00;;;;;;5075701;28;20418;-92
2023/09/05 04:28:24;;;;;;;2.53;2.20;;;16.50;1.00;;;;;;5063573;28;20399;-92
2023/09/05 04:30:50;;;;;;;3.30;1.90;;;16.40;1.00;;;;;;5074518;28;20399;-92
2023/09/05 04:33:16;;;;;;;2.60;2.13;;;18.00;1.00;;;;;;5056960;28;20468;-92
2023/09/05 04:35:41;;;;;;;2.40;2.20;;;16.90;1.00;;;;;;5064822;28;20421;-92
2023/09/05 04:38:09;;;;;;;2.67;2.15;;;17.30;1.00;;;;;;5088862;28;20382;-91
2023/09/05 04:40:35;;;;;;;3.10;2.20;;;15.90;1.00;;;;;;5091412;28;20384;-93
2023/09/05 04:43:03;;;;;;;2.77;2.40;;;18.90;1.00;;;;;;5095211;28;20858;-92
2023/09/05 04:45:29;;;;;;;5.30;2.20;;;16.60;1.00;;;;;;5094775;28;20371;-92
2023/09/05 04:47:55;;;;;;;3.53;2.40;;;17.00;1.00;;;;;;5093577;28;20383;-92
2023/09/05 04:50:21;;;;;;;3.50;2.47;;;15.70;1.00;;;;;;5094897;27;20382;-92
2023/09/05 04:52:47;;;;;;;3.53;2.40;;;15.90;1.00;;;;;;5071667;28;20419;-93
2023/09/05 04:55:13;;;;;;;3.47;2.88;;;17.20;1.00;;;;;;5195365;23;20421;-93
2023/09/05 04:57:42;;;;;;;4.28;3.22;;;15.70;1.00;;;;;;5076814;28;20502;-93
2023/09/05 05:00:47;;;;;;;5.28;3.50;;;15.80;1.00;;;;;;5076398;28;20416;-92
2023/09/05 05:06:22;;;;;;;3.85;2.70;;;16.40;1.00;;;;;;5327023;22;20483;-94
2023/09/05 05:14:01;;;;;;;4.70;2.90;;;16.10;1.00;;;;;;5212512;22;20419;-95
2023/09/05 08:28:20;;;;;;;5.05;3.50;;;21.70;1.00;;;;;;5865054;22;20438;-93
2023/09/05 09:25:24;;;;;;;3.72;3.30;;;22.80;1.00;;;;;;5569100;22;20427;-93
2023/09/05 09:33:03;;;;;;;4.13;3.33;;;22.60;1.00;;;;;;5081425;28;20519;-92
2023/09/05 09:35:29;;;;;;;3.63;3.28;;;23.10;1.00;;;;;;5058032;28;20911;-92
2023/09/05 09:38:04;;;;;;;3.90;3.40;;;23.40;1.00;;;;;;5071512;28;20424;-94
2023/09/05 09:40:37;;;;;;;3.88;3.40;;;23.00;1.00;;;;;;5070300;28;20388;-94
2023/09/05 09:43:04;;;;;;;4.03;3.20;;;23.50;1.00;;;;;;5080463;28;20405;-91
2023/09/05 09:45:33;;;;;;;3.47;3.28;;;23.60;1.00;;;;;;5081039;28;20386;-92
2023/09/05 09:48:55;;;;;;;;;;;;;;;;;;;;;
2023/09/05 10:05:23;;;;;;;4.10;2.83;;;23.70;1.00;;;;;;5574795;22;20469;-91
2023/09/05 10:07:51;;;;;;;3.75;3.33;;;23.60;1.00;;;;;;5442135;22;20438;-93
2023/09/05 10:12:49;;;;;;;4.85;3.13;;;23.80;1.00;;;;;;5035010;28;20447;-85
2023/09/05 10:15:18;;;;;;;3.60;3.30;;;24.50;1.00;;;;;;5014525;28;20492;-85
2023/09/05 10:17:45;;;;;;;4.07;3.72;;;24.20;1.00;;;;;;5021495;28;20481;-88
2023/09/05 10:20:14;;;;;;;3.90;3.20;;;22.90;1.00;;;;;;5040135;28;20419;-86
2023/09/05 10:22:40;;;;;;;3.75;3.20;;;23.40;1.00;;;;;;5013719;28;20405;-87
2023/09/05 10:25:07;;;;;;;3.70;3.40;;;23.90;1.00;;;;;;5020567;28;20395;-83
2023/09/05 10:27:33;;;;;;;4.50;3.20;;;24.20;1.00;;;;;;5011309;28;20425;-83
2023/09/05 10:29:59;;;;;;;3.60;3.30;;;24.20;1.00;;;;;;5016561;28;20406;-83
2023/09/05 10:32:25;;;;;;;3.47;2.90;;;24.30;1.00;;;;;;4984680;28;20471;-83
2023/09/05 10:34:50;;;;;;;3.85;3.20;;;24.40;1.00;;;;;;5016077;28;20384;-82
2023/09/05 10:37:21;;;;;;;4.20;3.17;;;24.00;1.00;;;;;;4995425;28;20456;-83
2023/09/05 10:39:48;;;;;;;3.40;3.10;;;24.50;1.00;;;;;;5004483;28;20451;-83
2023/09/05 10:42:15;;;;;;;3.90;3.50;;;24.60;1.00;;;;;;5014499;28;20389;-82
2023/09/05 10:44:47;;;;;;;3.58;3.10;;;24.60;1.00;;;;;;5014130;28;20435;-83
2023/09/05 10:47:26;;;;;;;5.78;3.72;;;24.70;1.00;;;;;;5017742;28;20483;-82
2023/09/05 10:49:59;;;;;;;3.30;2.80;;;24.70;1.00;;;;;;5018390;28;20396;-84
2023/09/05 10:52:27;;;;;;;3.55;3.20;;;24.80;1.00;;;;;;5017110;28;20948;-83
2023/09/05 10:54:53;;;;;;;3.63;3.10;;;25.80;1.00;;;;;;5018659;28;20403;-83
2023/09/05 10:57:38;;;;;;;3.40;3.10;;;24.90;1.00;;;;;;5004356;28;20479;-84
2023/09/05 11:00:29;;;;;;;4.45;2.83;;;25.10;1.00;;;;;;4998736;28;20422;-84
2023/09/05 11:03:08;;;;;;;3.25;2.90;;;25.20;1.00;;;;;;4981935;28;20403;-82
2023/09/05 11:05:34;;;;;;;3.20;2.90;;;25.10;1.00;;;;;;5015521;28;20421;-83
2023/09/05 11:08:00;;;;;;;3.97;3.20;;;25.30;1.00;;;;;;5024670;28;20421;-83
2023/09/05 11:10:34;;;;;;;4.25;2.80;;;25.60;1.00;;;;;;5019882;28;20578;-82
2023/09/05 11:13:14;;;;;;;3.47;3.17;;;25.70;1.00;;;;;;5014910;28;20867;-82
2023/09/05 11:15:43;;;;;;;3.30;3.00;;;26.00;1.00;;;;;;5014944;28;20553;-83
2023/09/05 11:18:14;;;;;;;3.28;2.92;;;26.00;1.00;;;;;;5021809;28;20391;-84
2023/09/05 11:20:42;;;;;;;4.90;3.30;;;26.00;1.00;;;;;;5009612;28;20397;-82
2023/09/05 11:23:17;;;;;;;2.90;2.70;;;26.30;1.00;;;;;;5019346;28;20426;-83
2023/09/05 11:25:55;;;;;;;4.03;2.72;;;26.50;1.00;;;;;;5013841;28;20440;-83
2023/09/05 11:28:23;;;;;;;2.92;2.72;;;26.30;1.00;;;;;;5027312;28;20388;-83
2023/09/05 11:30:57;;;;;;;3.08;2.70;;;27.00;1.00;;;;;;5003396;28;20401;-82
2023/09/05 11:33:24;;;;;;;2.42;2.22;;;27.50;1.00;;;;;;5015189;28;20431;-83
2023/09/05 11:35:49;;;;;;;3.10;2.60;;;28.00;1.00;;;;;;5015603;28;20568;-83
2023/09/05 11:38:20;;;;;;;4.90;2.70;;;28.70;1.00;;;;;;5014097;28;20388;-83
2023/09/05 11:40:53;;;;;;;2.63;2.43;;;29.80;1.00;;;;;;5011647;28;20388;-83
2023/09/05 11:43:19;;;;;;;2.50;2.30;;;30.00;1.00;;;;;;5003165;28;20498;-83
2023/09/05 11:45:47;;;;;;;2.90;2.50;;;30.00;1.00;;;;;;4992778;28;20898;-83
2023/09/05 11:48:17;;;;;;;2.72;2.53;;;30.20;1.00;;;;;;4997115;28;20401;-83
2023/09/05 11:50:45;;;;;;;3.35;2.35;;;30.20;1.00;;;;;;5012800;28;20872;-84
2023/09/05 11:53:14;;;;;;;2.70;2.50;;;30.00;1.00;;;;;;5013384;28;20405;-83
2023/09/05 11:55:40;;;;;;;2.40;2.20;;;29.80;1.00;;;;;;5013691;28;20380;-83
2023/09/05 11:58:06;;;;;;;2.70;2.40;;;30.10;1.00;;;;;;5008128;28;20402;-83
2023/09/05 12:00:32;;;;;;;2.10;1.90;;;30.80;1.00;;;;;;5003608;28;20399;-83
2023/09/05 12:03:02;;;;;;;2.92;2.00;;;30.50;1.00;;;;;;5005854;28;20763;-82
2023/09/05 12:05:35;;;;;;;2.60;2.40;;;30.10;1.00;;;;;;5009294;28;20393;-82
2023/09/05 12:08:05;;;;;;;2.70;2.50;;;29.70;1.00;;;;;;5007537;28;20395;-85
2023/09/05 12:10:38;;;;;;;2.40;2.20;;;29.40;1.00;;;;;;5004043;28;20468;-83
2023/09/05 12:13:04;;;;;;;2.70;2.50;;;29.20;1.00;;;;;;5003798;28;20405;-83
2023/09/05 12:15:32;;;;;;;3.30;2.50;;;29.30;1.00;;;;;;5014092;28;20399;-85
2023/09/05 12:18:03;;;;;;;3.10;2.90;;;29.30;1.00;;;;;;5012778;28;20903;-82
2023/09/05 12:20:33;;;;;;;2.75;2.53;;;28.90;1.00;;;;;;5011329;28;20392;-84
2023/09/05 12:22:59;;;;;;;4.20;3.00;;;29.10;1.00;;;;;;5012173;28;20444;-87
2023/09/05 12:25:28;;;;;;;3.40;3.10;;;29.70;1.00;;;;;;5013464;28;20768;-82
2023/09/05 12:27:55;;;;;;;2.90;2.70;;;29.20;1.00;;;;;;5012719;28;20387;-86
2023/09/05 12:30:26;;;;;;;2.88;2.63;;;29.50;1.00;;;;;;5013227;28;20561;-83
2023/09/05 12:32:54;;;;;;;3.03;2.73;;;29.20;1.00;;;;;;5023975;28;20412;-83
2023/09/05 12:35:20;;;;;;;4.43;2.90;;;29.30;1.00;;;;;;5008306;28;20936;-85
2023/09/05 12:37:45;;;;;;;2.90;2.70;;;28.90;1.00;;;;;;4998143;28;20399;-83
2023/09/05 12:40:11;;;;;;;3.03;2.80;;;29.20;1.00;;;;;;5012702;28;20388;-84
2023/09/05 12:42:37;;;;;;;3.00;2.80;;;29.30;1.00;;;;;;4996645;28;20401;-85
2023/09/05 12:45:02;;;;;;;3.37;3.07;;;30.00;1.00;;;;;;5018624;28;20405;-86
2023/09/05 12:47:29;;;;;;;3.90;3.13;;;29.20;1.00;;;;;;5014291;28;20495;-85
2023/09/05 12:49:55;;;;;;;2.88;2.67;;;29.40;1.00;;;;;;5012263;28;20400;-85
2023/09/05 12:52:22;;;;;;;3.13;2.75;;;29.30;1.00;;;;;;5007711;28;20433;-85
2023/09/05 12:54:48;;;;;;;2.90;2.60;;;29.00;1.00;;;;;;5018862;28;20369;-89
2023/09/05 12:57:14;;;;;;;3.60;2.90;;;29.10;1.00;;;;;;5026844;28;20407;-86
2023/09/05 12:59:43;;;;;;;3.05;2.85;;;29.00;1.00;;;;;;5012201;28;20416;-85
2023/09/05 13:02:08;;;;;;;3.20;3.00;;;28.90;1.00;;;;;;5009502;28;20396;-84
2023/09/05 13:04:37;;;;;;;3.87;2.90;;;29.00;1.00;;;;;;5008207;28;20468;-85
2023/09/05 13:07:03;;;;;;;3.38;3.08;;;29.10;1.00;;;;;;5005070;28;20475;-85
2023/09/05 13:09:28;;;;;;;3.10;2.90;;;29.20;1.00;;;;;;5009467;28;20431;-85
2023/09/05 13:11:54;;;;;;;4.93;3.20;;;29.20;1.00;;;;;;5006913;28;20420;-84
2023/09/05 13:14:20;;;;;;;4.20;3.20;;;29.20;1.00;;;;;;4989682;28;20406;-85
2023/09/05 13:16:45;;;;;;;6.50;3.20;;;29.60;1.00;;;;;;5013992;28;20381;-85
2023/09/05 13:19:11;;;;;;;4.10;3.23;;;29.20;1.00;;;;;;5024325;28;20750;-86
2023/09/05 13:21:37;;;;;;;3.20;2.90;;;29.40;1.00;;;;;;5021648;28;20387;-86
2023/09/05 13:24:03;;;;;;;3.17;2.88;;;29.40;1.00;;;;;;5029098;28;20401;-85
2023/09/05 13:26:34;;;;;;;3.88;3.38;;;29.50;1.00;;;;;;5019126;28;20411;-88
2023/09/05 13:29:00;;;;;;;3.10;2.80;;;29.60;1.00;;;;;;5024092;28;20403;-86
2023/09/05 13:31:25;;;;;;;4.05;3.10;;;29.70;1.00;;;;;;5018637;28;20439;-85
2023/09/05 13:33:51;;;;;;;3.10;2.80;;;30.00;1.00;;;;;;5031730;28;20394;-85
2023/09/05 13:36:17;;;;;;;3.33;3.07;;;30.30;1.00;;;;;;5039170;28;20387;-87
2023/09/05 13:38:43;;;;;;;3.40;3.10;;;31.10;1.00;;;;;;5023303;28;20941;-88
2023/09/05 13:41:08;;;;;;;3.30;3.00;;;30.20;1.00;;;;;;5019193;28;20408;-85
2023/09/05 13:43:34;;;;;;;2.77;2.57;;;29.80;1.00;;;;;;5012520;28;20410;-85
2023/09/05 13:46:00;;;;;;;2.60;2.20;;;29.80;1.00;;;;;;4996526;28;20406;-88
2023/09/05 13:48:26;;;;;;;5.53;3.28;;;30.10;1.00;;;;;;4996309;28;20973;-85
2023/09/05 13:50:52;;;;;;;3.47;2.90;;;30.40;1.00;;;;;;5003862;28;20434;-86
2023/09/05 13:53:19;;;;;;;3.20;2.90;;;29.80;1.00;;;;;;5018838;28;20400;-88
2023/09/05 13:55:46;;;;;;;3.53;2.60;;;29.50;1.00;;;;;;5006509;28;20921;-88
2023/09/05 13:58:12;;;;;;;3.28;3.00;;;29.10;1.00;;;;;;5008901;28;20481;-87
2023/09/05 14:00:45;;;;;;;3.30;2.60;;;30.40;1.00;;;;;;5012302;28;20495;-88
2023/09/05 14:03:10;;;;;;;3.83;2.90;;;29.90;1.00;;;;;;5010096;28;20384;-87
2023/09/05 14:05:37;;;;;;;2.90;2.30;;;30.60;1.00;;;;;;5013683;28;20411;-88
2023/09/05 14:08:03;;;;;;;3.20;2.90;;;29.90;1.00;;;;;;5026048;28;20433;-87
2023/09/05 14:10:31;;;;;;;3.00;2.80;;;29.70;1.00;;;;;;5012857;28;20401;-90
2023/09/05 14:12:57;;;;;;;4.00;2.70;;;29.70;1.00;;;;;;4996898;28;20914;-86
2023/09/05 14:15:22;;;;;;;2.90;2.60;;;29.60;1.00;;;;;;5016077;28;20412;-88
2023/09/05 14:17:48;;;;;;;2.87;2.50;;;29.80;1.00;;;;;;5014205;28;20400;-88
2023/09/05 14:20:16;;;;;;;3.00;2.80;;;29.90;1.00;;;;;;5027505;28;20399;-87
2023/09/05 14:22:42;;;;;;;2.72;2.53;;;30.20;1.00;;;;;;5017921;28;20415;-86
2023/09/05 14:25:07;;;;;;;3.53;2.65;;;30.10;1.00;;;;;;5034516;28;20381;-87
2023/09/05 14:27:33;;;;;;;3.20;2.90;;;30.10;1.00;;;;;;5041086;28;20389;-87
2023/09/05 14:29:59;;;;;;;2.90;2.70;;;29.00;1.00;;;;;;5039436;28;20608;-88
2023/09/05 14:32:24;;;;;;;2.78;2.55;;;30.50;1.00;;;;;;5037393;28;20416;-87
2023/09/05 14:34:54;;;;;;;3.90;2.40;;;29.90;1.00;;;;;;5038769;28;20389;-87
2023/09/05 14:37:19;;;;;;;2.75;2.55;;;30.10;1.00;;;;;;5039003;28;20458;-86
2023/09/05 14:39:45;;;;;;;3.67;2.75;;;30.80;1.00;;;;;;5021964;28;20916;-90
2023/09/05 14:42:11;;;;;;;2.90;2.50;;;30.30;1.00;;;;;;4999652;28;20481;-90
2023/09/05 14:44:36;;;;;;;5.10;2.73;;;30.40;1.00;;;;;;5006824;28;20387;-88
2023/09/05 14:47:05;;;;;;;2.45;2.25;;;30.40;1.00;;;;;;5015863;28;20389;-89
2023/09/05 14:49:31;;;;;;;2.53;2.33;;;29.90;1.00;;;;;;5023178;28;20395;-89
2023/09/05 14:51:57;;;;;;;3.00;2.80;;;29.90;1.00;;;;;;5001375;28;20416;-89
2023/09/05 14:54:25;;;;;;;2.38;2.17;;;29.90;1.00;;;;;;5033149;28;20474;-89
2023/09/05 14:56:50;;;;;;;2.50;2.30;;;29.50;1.00;;;;;;5030215;28;20422;-89
2023/09/05 14:59:17;;;;;;;2.50;2.30;;;30.20;1.00;;;;;;5025979;28;20415;-89
2023/09/05 15:01:45;;;;;;;2.33;2.13;;;31.20;1.00;;;;;;5016932;28;20917;-89
2023/09/05 15:04:12;;;;;;;2.40;2.20;;;31.00;1.00;;;;;;5033046;28;20490;-90
2023/09/05 15:06:38;;;;;;;2.47;2.27;;;30.00;1.00;;;;;;5017374;28;20387;-88
2023/09/05 15:09:04;;;;;;;3.50;2.13;;;30.00;1.00;;;;;;5019602;28;20467;-88
2023/09/05 15:11:29;;;;;;;2.53;2.20;;;29.80;1.00;;;;;;5013463;28;20420;-87
2023/09/05 15:13:55;;;;;;;2.53;2.20;;;30.40;1.00;;;;;;5027121;28;20385;-90
2023/09/05 15:16:25;;;;;;;3.57;2.33;;;30.00;1.00;;;;;;5034153;28;20410;-88
2023/09/05 15:18:50;;;;;;;2.78;2.58;;;30.10;1.00;;;;;;5016990;28;20383;-87
2023/09/05 15:21:17;;;;;;;2.80;2.40;;;30.50;1.00;;;;;;5015053;28;20530;-87
2023/09/05 15:23:43;;;;;;;2.38;2.17;;;29.90;1.00;;;;;;5012169;28;20770;-88
2023/09/05 15:26:09;;;;;;;3.50;2.53;;;29.80;1.00;;;;;;5013941;28;20397;-88
2023/09/05 15:28:35;;;;;;;4.20;2.30;;;29.80;1.00;;;;;;5022097;28;20384;-88
2023/09/05 15:31:01;;;;;;;2.88;2.20;;;29.80;1.00;;;;;;5023856;28;20416;-85
2023/09/05 15:33:26;;;;;;;2.37;2.07;;;30.20;1.00;;;;;;5020800;28;20412;-83
2023/09/05 15:36:00;;;;;;;3.95;2.10;;;29.90;1.00;;;;;;5018312;28;20467;-83
2023/09/05 15:38:27;;;;;;;3.30;2.00;;;29.90;1.00;;;;;;5016602;28;20394;-88
2023/09/05 15:40:52;;;;;;;2.50;2.30;;;30.00;1.00;;;;;;5020091;28;20389;-88
2023/09/05 15:43:18;;;;;;;2.60;2.20;;;29.90;1.00;;;;;;5024180;28;20809;-87
2023/09/05 15:45:51;;;;;;;3.38;2.70;;;30.00;1.00;;;;;;5006993;28;20746;-88
2023/09/05 15:48:17;;;;;;;3.65;2.17;;;30.90;1.00;;;;;;5020895;28;20772;-88
2023/09/05 15:50:44;;;;;;;2.50;2.30;;;29.80;1.00;;;;;;5033522;28;20412;-89
2023/09/05 15:53:14;;;;;;;2.95;2.28;;;29.60;1.00;;;;;;5018616;28;20436;-88
2023/09/05 15:55:40;;;;;;;2.38;2.17;;;29.90;1.00;;;;;;5031662;28;20408;-89
2023/09/05 15:58:07;;;;;;;2.30;2.10;;;29.80;1.00;;;;;;5022011;28;20515;-89
2023/09/05 16:00:33;;;;;;;2.78;2.25;;;31.40;1.00;;;;;;5018911;28;20424;-88
2023/09/05 16:02:58;;;;;;;2.75;2.20;;;29.50;1.00;;;;;;5002535;28;20450;-90
2023/09/05 16:05:24;;;;;;;3.00;2.28;;;29.50;1.00;;;;;;5013309;28;20381;-89
2023/09/05 16:07:50;;;;;;;2.60;2.40;;;29.60;1.00;;;;;;5013347;28;20409;-89
2023/09/05 16:10:16;;;;;;;2.20;2.00;;;29.40;1.00;;;;;;5012413;28;20420;-88
2023/09/05 16:12:42;;;;;;;2.50;1.77;;;30.90;1.00;;;;;;5011054;28;20924;-88
2023/09/05 16:15:08;;;;;;;4.10;2.40;;;30.60;1.00;;;;;;5011159;28;20396;-88
2023/09/05 16:17:33;;;;;;;2.60;2.20;;;29.00;1.00;;;;;;5012360;28;20435;-89
2023/09/05 16:19:59;;;;;;;4.13;2.40;;;29.00;1.00;;;;;;5011309;28;20811;-88
2023/09/05 16:22:24;;;;;;;2.40;2.20;;;28.90;1.00;;;;;;5011688;28;20405;-88
2023/09/05 16:24:50;;;;;;;2.53;2.33;;;29.00;1.00;;;;;;5010809;28;20397;-89
2023/09/05 16:27:16;;;;;;;2.23;2.00;;;29.20;1.00;;;;;;5011013;28;20393;-88
2023/09/05 16:29:42;;;;;;;2.53;2.20;;;28.50;1.00;;;;;;5011762;28;20762;-88
2023/09/05 16:32:08;;;;;;;2.17;2.00;;;29.00;1.00;;;;;;5010863;28;20408;-81
2023/09/05 16:34:33;;;;;;;3.35;2.42;;;28.70;1.00;;;;;;4994045;28;20412;-81
2023/09/05 16:36:59;;;;;;;2.50;2.30;;;28.80;1.00;;;;;;5019632;28;20391;-88
2023/09/05 16:39:25;;;;;;;4.70;2.70;;;29.00;1.00;;;;;;5043537;28;20408;-88
2023/09/05 16:41:50;;;;;;;2.40;2.20;;;28.60;1.00;;;;;;5012786;28;20470;-87
2023/09/05 16:44:16;;;;;;;3.03;2.30;;;28.30;1.00;;;;;;4992706;28;20401;-87
2023/09/05 16:46:42;;;;;;;4.37;2.53;;;28.00;1.00;;;;;;4995398;28;20389;-86
2023/09/05 16:49:07;;;;;;;2.53;2.33;;;28.80;1.00;;;;;;5010737;28;20381;-88
2023/09/05 16:51:35;;;;;;;2.60;2.40;;;28.40;1.00;;;;;;5010107;28;20781;-87
2023/09/05 16:54:01;;;;;;;3.00;2.55;;;27.90;1.00;;;;;;5010095;28;20422;-88
2023/09/05 16:56:26;;;;;;;2.53;2.33;;;28.30;1.00;;;;;;5011875;28;20412;-87
2023/09/05 16:58:52;;;;;;;3.10;2.50;;;28.20;1.00;;;;;;5014288;28;20404;-87
2023/09/05 17:01:18;;;;;;;3.20;2.20;;;28.10;1.00;;;;;;5013373;28;20392;-88
2023/09/05 17:03:43;;;;;;;2.53;2.10;;;29.10;1.00;;;;;;5012207;28;20457;-87
2023/09/05 17:06:09;;;;;;;2.80;2.40;;;27.50;1.00;;;;;;5012953;28;20381;-88
2023/09/05 17:08:35;;;;;;;3.72;2.47;;;28.50;1.00;;;;;;5013056;28;20400;-89
2023/09/05 17:11:00;;;;;;;3.85;2.55;;;27.70;1.00;;;;;;5011987;28;20936;-86
2023/09/05 17:13:27;;;;;;;2.50;2.30;;;27.80;1.00;;;;;;5010802;28;20415;-86
2023/09/05 17:15:53;;;;;;;3.53;2.45;;;27.70;1.00;;;;;;5012091;28;20419;-87
2023/09/05 17:18:19;;;;;;;3.60;2.35;;;27.70;1.00;;;;;;5010338;28;20462;-87
2023/09/05 17:20:52;;;;;;;11.55;2.60;;;29.10;1.00;;;;;;5009378;28;20403;-87
2023/09/05 17:23:20;;;;;;;2.60;2.30;;;27.70;1.00;;;;;;4993722;28;20492;-87
2023/09/05 17:25:46;;;;;;;3.38;2.20;;;27.60;1.00;;;;;;5010489;28;20401;-86
2023/09/05 17:28:11;;;;;;;4.70;3.10;;;27.60;1.00;;;;;;5009817;28;20401;-86
2023/09/05 17:30:37;;;;;;;4.40;2.63;;;27.10;1.00;;;;;;5008799;28;20408;-87
2023/09/05 17:33:08;;;;;;;4.30;3.33;;;27.80;1.00;;;;;;5009705;28;20432;-86
2023/09/05 17:35:34;;;;;;;4.68;3.35;;;26.10;1.00;;;;;;5009345;28;20384;-86
2023/09/05 17:38:00;;;;;;;3.60;3.30;;;25.50;1.00;;;;;;5008492;28;20757;-87
2023/09/05 17:40:25;;;;;;;4.03;3.50;;;25.30;1.00;;;;;;5014830;28;20438;-87
2023/09/05 17:42:51;;;;;;;3.70;3.40;;;24.00;1.00;;;;;;5009533;28;20582;-87
2023/09/05 17:45:19;;;;;;;4.10;3.70;;;24.60;1.00;;;;;;5011178;28;20523;-87
2023/09/05 17:47:45;;;;;;;3.58;2.92;;;24.70;1.00;;;;;;5008833;28;20773;-88
2023/09/05 17:50:10;;;;;;;3.80;3.40;;;26.70;1.00;;;;;;5012338;28;20403;-86
2023/09/05 17:52:36;;;;;;;4.70;3.70;;;25.20;1.00;;;;;;5010207;28;20405;-86
2023/09/05 17:55:01;;;;;;;3.60;2.70;;;24.30;1.00;;;;;;5025573;28;20395;-87
2023/09/05 17:57:27;;;;;;;4.40;3.80;;;24.20;1.00;;;;;;5011031;28;20423;-86
2023/09/05 17:59:53;;;;;;;6.20;3.60;;;24.00;1.00;;;;;;5015218;28;20441;-86
2023/09/05 18:02:18;;;;;;;5.37;4.00;;;24.00;1.00;;;;;;5029396;28;20383;-87
2023/09/05 18:04:45;;;;;;;4.23;3.67;;;24.80;1.00;;;;;;4980428;28;20859;-87
2023/09/05 18:07:11;;;;;;;4.03;3.63;;;23.70;1.00;;;;;;5004892;28;20469;-87
2023/09/05 18:09:37;;;;;;;5.75;3.90;;;24.10;1.00;;;;;;5011229;28;20989;-81
2023/09/05 18:12:03;;;;;;;5.35;4.25;;;23.30;1.00;;;;;;5018667;28;20409;-82
2023/09/05 18:14:28;;;;;;;5.97;4.50;;;23.40;1.00;;;;;;5007931;28;20476;-82
2023/09/05 18:16:54;;;;;;;6.33;4.10;;;23.40;1.00;;;;;;5011107;28;20418;-84
2023/09/05 18:19:20;;;;;;;5.60;3.80;;;23.30;1.00;;;;;;5020005;28;20452;-83
2023/09/05 18:21:47;;;;;;;4.40;3.60;;;23.20;1.00;;;;;;5016708;28;20472;-88
2023/09/05 18:24:13;;;;;;;5.50;3.50;;;23.10;1.00;;;;;;5012755;28;20389;-88
2023/09/05 18:26:38;;;;;;;5.80;4.20;;;23.10;1.00;;;;;;5014674;28;20764;-87
2023/09/05 18:29:06;;;;;;;4.30;3.90;;;23.00;1.00;;;;;;5020704;28;20436;-87
2023/09/05 18:31:32;;;;;;;4.28;3.60;;;24.10;1.00;;;;;;5015021;28;20832;-88
2023/09/05 18:33:58;;;;;;;3.90;3.60;;;22.90;1.00;;;;;;5032278;28;20381;-89
2023/09/05 18:36:24;;;;;;;4.15;3.70;;;22.80;1.00;;;;;;5025170;28;20431;-88
2023/09/05 18:38:49;;;;;;;4.70;4.13;;;22.90;1.00;;;;;;5035606;28;20465;-88
2023/09/05 18:41:15;;;;;;;4.57;3.73;;;22.80;1.00;;;;;;5001444;28;20392;-88
2023/09/05 18:43:47;;;;;;;4.35;3.83;;;22.70;1.00;;;;;;5019538;28;20385;-89
2023/09/05 18:46:15;;;;;;;4.35;3.90;;;22.70;1.00;;;;;;5020656;28;20396;-89
2023/09/05 18:48:42;;;;;;;4.97;3.45;;;22.60;1.00;;;;;;5006913;28;20400;-88
2023/09/05 18:51:12;;;;;;;4.53;4.13;;;24.80;1.00;;;;;;5008742;28;20903;-88
2023/09/05 18:53:38;;;;;;;4.78;4.00;;;23.30;1.00;;;;;;4990984;28;20410;-88
2023/09/05 18:56:06;;;;;;;5.47;3.60;;;23.80;1.00;;;;;;5003057;28;20393;-88
2023/09/05 18:58:31;;;;;;;3.60;3.30;;;23.20;1.00;;;;;;5001894;28;20424;-88
2023/09/05 19:00:57;;;;;;;4.40;4.00;;;22.50;1.00;;;;;;5010340;28;20367;-88
2023/09/05 19:03:23;;;;;;;4.20;3.80;;;22.70;1.00;;;;;;5025420;28;20381;-87
2023/09/05 19:05:49;;;;;;;7.53;3.90;;;20.90;1.00;;;;;;5026062;28;20414;-88
2023/09/05 19:08:15;;;;;;;4.10;3.60;;;22.30;1.00;;;;;;5029457;28;20391;-87
2023/09/05 19:10:43;;;;;;;3.57;3.27;;;22.50;1.00;;;;;;5021876;28;20765;-88
2023/09/05 19:13:09;;;;;;;4.07;3.17;;;20.70;1.00;;;;;;5006233;28;20440;-88
2023/09/05 19:15:38;;;;;;;3.63;3.00;;;22.20;1.00;;;;;;5005509;28;20401;-87
2023/09/05 19:18:03;;;;;;;4.40;3.08;;;23.50;1.00;;;;;;5031467;28;20404;-89
2023/09/05 19:20:29;;;;;;;4.35;3.03;;;22.10;1.00;;;;;;5036606;28;20459;-88
2023/09/05 19:22:55;;;;;;;3.70;3.30;;;21.00;1.00;;;;;;5023233;28;20385;-88
2023/09/05 19:25:20;;;;;;;4.20;3.00;;;22.50;1.00;;;;;;5013781;28;20400;-88
2023/09/05 19:27:49;;;;;;;3.78;2.80;;;22.10;1.00;;;;;;5013337;28;20411;-88
2023/09/05 19:30:18;;;;;;;4.32;2.90;;;22.10;1.00;;;;;;5031969;28;20392;-87
2023/09/05 19:32:43;;;;;;;3.72;2.90;;;22.20;1.00;;;;;;5025619;28;20813;-87
2023/09/05 19:35:12;;;;;;;2.70;2.50;;;22.50;1.00;;;;;;5015745;28;20443;-88
2023/09/05 19:37:39;;;;;;;3.60;2.30;;;22.90;1.00;;;;;;5013409;28;20760;-88
2023/09/05 19:40:06;;;;;;;3.38;2.60;;;22.50;1.00;;;;;;5013199;28;20439;-88
2023/09/05 19:42:35;;;;;;;3.58;2.60;;;22.20;1.00;;;;;;5013026;28;20393;-88
2023/09/05 19:45:06;;;;;;;3.63;2.50;;;23.50;1.00;;;;;;5014756;28;20873;-89
2023/09/05 19:47:33;;;;;;;2.90;2.70;;;22.40;1.00;;;;;;5035140;28;20456;-88
2023/09/05 19:49:59;;;;;;;3.15;2.63;;;22.50;1.00;;;;;;5037004;28;20425;-88
2023/09/05 19:52:27;;;;;;;3.75;2.17;;;22.50;1.00;;;;;;5030924;28;20428;-88
2023/09/05 19:54:55;;;;;;;2.60;2.10;;;22.30;1.00;;;;;;5014633;28;20422;-88
2023/09/05 19:57:21;;;;;;;2.75;2.40;;;22.50;1.00;;;;;;5013572;28;20868;-87
2023/09/05 19:59:47;;;;;;;4.00;2.40;;;22.30;1.00;;;;;;5014391;28;20396;-88
2023/09/05 20:02:13;;;;;;;2.40;2.10;;;21.60;1.00;;;;;;5013104;28;20397;-88
2023/09/05 20:04:38;;;;;;;2.20;2.00;;;22.40;1.00;;;;;;5016014;28;20438;-88
2023/09/05 20:07:04;;;;;;;5.03;2.00;;;22.20;1.00;;;;;;5014329;28;20381;-88
2023/09/05 20:09:34;;;;;;;2.50;2.30;;;22.20;1.00;;;;;;5013696;28;20389;-88
2023/09/05 20:12:01;;;;;;;3.13;2.40;;;22.80;1.00;;;;;;5013804;28;20923;-87
2023/09/05 20:14:28;;;;;;;3.30;2.05;;;22.10;1.00;;;;;;5013838;28;20408;-87